Ship Bottom, New Jersey
Current Conditions -  °F | °C
As of 8:35 AM on Thursday 18 Dec 2014 (Local Time) from KMJX Reporting Station
Clear Clear  
Wind Chill:   Ceiling: Unl
Heat Index:   Visibility: 10mi
Dew Point: -6°   Wind: 0mph
Humidity: 56%   Direction: NA
Pressure: 30.02"   Gusts: NA
Location:  39.623°N, 74.1974°W
Report Text: KMJX 181335Z AUTO 00000KT 10SM CLR 02/M06 A3002 RMK AO1
Loading
Personal Weather Stations






























Interactive Weather Map New forecast layout! Learn more

10-Day Weather Forecast

Advertisements
Track Severe Weather on mobile